sensor_id;sensor_type;location;lat;lon;timestamp;pressure;altitude;pressure_sealevel;temperature;humidity
52975;BME280;38839;45.186;5.720;2023-12-20T00:01:01;99848.19;;;4.65;100.00
52975;BME280;38839;45.186;5.720;2023-12-20T00:03:27;99838.59;;;4.61;100.00
52975;BME280;38839;45.186;5.720;2023-12-20T00:05:52;99835.09;;;4.59;100.00
52975;BME280;38839;45.186;5.720;2023-12-20T00:08:17;99833.34;;;4.58;100.00
52975;BME280;38839;45.186;5.720;2023-12-20T00:10:43;99844.28;;;4.51;100.00
52975;BME280;38839;45.186;5.720;2023-12-20T00:13:08;99839.31;;;4.57;100.00
52975;BME280;38839;45.186;5.720;2023-12-20T00:15:34;99838.56;;;4.59;100.00
52975;BME280;38839;45.186;5.720;2023-12-20T00:17:59;99849.78;;;4.60;100.00
52975;BME280;38839;45.186;5.720;2023-12-20T00:20:24;99848.94;;;4.61;100.00
52975;BME280;38839;45.186;5.720;2023-12-20T00:22:50;99858.53;;;4.65;100.00
52975;BME280;38839;45.186;5.720;2023-12-20T00:25:15;99861.91;;;4.62;100.00
52975;BME280;38839;45.186;5.720;2023-12-20T00:27:40;99857.94;;;4.47;100.00
52975;BME280;38839;45.186;5.720;2023-12-20T00:30:06;99858.78;;;4.20;100.00
52975;BME280;38839;45.186;5.720;2023-12-20T00:32:31;99850.16;;;4.19;100.00
52975;BME280;38839;45.186;5.720;2023-12-20T00:34:56;99857.28;;;4.01;100.00
52975;BME280;38839;45.186;5.720;2023-12-20T00:37:22;99858.94;;;3.99;100.00
52975;BME280;38839;45.186;5.720;2023-12-20T00:39:47;99856.41;;;4.00;100.00
52975;BME280;38839;45.186;5.720;2023-12-20T00:42:12;99853.50;;;3.91;100.00
52975;BME280;38839;45.186;5.720;2023-12-20T00:44:38;99844.53;;;4.06;100.00
52975;BME280;38839;45.186;5.720;2023-12-20T00:47:03;99842.06;;;4.09;100.00
52975;BME280;38839;45.186;5.720;2023-12-20T00:49:28;99843.09;;;4.14;100.00
52975;BME280;38839;45.186;5.720;2023-12-20T00:51:54;99841.56;;;4.19;100.00
52975;BME280;38839;45.186;5.720;2023-12-20T00:54:19;99829.84;;;4.30;100.00
52975;BME280;38839;45.186;5.720;2023-12-20T00:56:44;99831.81;;;4.37;100.00
52975;BME280;38839;45.186;5.720;2023-12-20T00:59:09;99823.34;;;4.41;100.00
52975;BME280;38839;45.186;5.720;2023-12-20T01:01:35;99835.41;;;4.42;100.00
52975;BME280;38839;45.186;5.720;2023-12-20T01:04:01;99835.59;;;4.47;100.00
52975;BME280;38839;45.186;5.720;2023-12-20T01:06:26;99831.28;;;4.48;100.00
52975;BME280;38839;45.186;5.720;2023-12-20T01:08:51;99830.44;;;4.49;100.00
52975;BME280;38839;45.186;5.720;2023-12-20T01:11:16;99836.34;;;4.44;100.00
52975;BME280;38839;45.186;5.720;2023-12-20T01:13:42;99838.31;;;4.25;100.00
52975;BME280;38839;45.186;5.720;2023-12-20T01:16:10;99848.97;;;4.10;100.00
52975;BME280;38839;45.186;5.720;2023-12-20T01:18:35;99854.00;;;4.05;100.00
52975;BME280;38839;45.186;5.720;2023-12-20T01:21:03;99857.84;;;3.92;100.00
52975;BME280;38839;45.186;5.720;2023-12-20T01:23:28;99867.53;;;3.74;100.00
52975;BME280;38839;45.186;5.720;2023-12-20T01:25:54;99868.84;;;3.62;100.00
52975;BME280;38839;45.186;5.720;2023-12-20T01:28:21;99869.69;;;3.61;100.00
52975;BME280;38839;45.186;5.720;2023-12-20T01:30:46;99856.94;;;3.66;100.00
52975;BME280;38839;45.186;5.720;2023-12-20T01:33:12;99869.19;;;3.72;100.00
52975;BME280;38839;45.186;5.720;2023-12-20T01:35:37;99866.75;;;3.76;100.00
52975;BME280;38839;45.186;5.720;2023-12-20T01:38:02;99862.88;;;3.88;100.00
52975;BME280;38839;45.186;5.720;2023-12-20T01:40:27;99867.69;;;4.02;100.00
52975;BME280;38839;45.186;5.720;2023-12-20T01:42:59;99861.06;;;4.11;100.00
52975;BME280;38839;45.186;5.720;2023-12-20T01:45:25;99859.72;;;4.22;100.00
52975;BME280;38839;45.186;5.720;2023-12-20T01:47:50;99863.50;;;4.32;100.00
52975;BME280;38839;45.186;5.720;2023-12-20T01:50:15;99866.13;;;4.33;100.00
52975;BME280;38839;45.186;5.720;2023-12-20T01:52:42;99858.53;;;4.38;100.00
52975;BME280;38839;45.186;5.720;2023-12-20T01:55:08;99858.59;;;4.39;100.00
52975;BME280;38839;45.186;5.720;2023-12-20T01:57:38;99860.03;;;4.31;100.00
52975;BME280;38839;45.186;5.720;2023-12-20T02:00:04;99855.69;;;4.30;100.00
52975;BME280;38839;45.186;5.720;2023-12-20T02:02:29;99858.75;;;4.18;100.00
52975;BME280;38839;45.186;5.720;2023-12-20T02:04:55;99860.28;;;4.13;100.00
52975;BME280;38839;45.186;5.720;2023-12-20T02:07:21;99866.31;;;4.14;100.00
52975;BME280;38839;45.186;5.720;2023-12-20T02:09:46;99868.97;;;4.15;100.00
52975;BME280;38839;45.186;5.720;2023-12-20T02:12:12;99862.78;;;4.10;100.00
52975;BME280;38839;45.186;5.720;2023-12-20T02:14:37;99858.69;;;4.17;100.00
52975;BME280;38839;45.186;5.720;2023-12-20T02:17:03;99863.03;;;4.18;100.00
52975;BME280;38839;45.186;5.720;2023-12-20T02:19:28;99855.13;;;4.13;100.00
52975;BME280;38839;45.186;5.720;2023-12-20T02:22:04;99852.34;;;4.07;100.00
52975;BME280;38839;45.186;5.720;2023-12-20T02:24:29;99846.38;;;4.08;100.00
52975;BME280;38839;45.186;5.720;2023-12-20T02:26:55;99842.78;;;4.05;100.00
52975;BME280;38839;45.186;5.720;2023-12-20T02:29:20;99839.28;;;4.02;100.00
52975;BME280;38839;45.186;5.720;2023-12-20T02:31:45;99834.31;;;4.09;100.00
52975;BME280;38839;45.186;5.720;2023-12-20T02:34:10;99832.59;;;4.09;100.00
52975;BME280;38839;45.186;5.720;2023-12-20T02:36:36;99825.66;;;4.07;100.00
52975;BME280;38839;45.186;5.720;2023-12-20T02:39:01;99822.34;;;4.11;100.00
52975;BME280;38839;45.186;5.720;2023-12-20T02:41:26;99811.44;;;4.19;100.00
52975;BME280;38839;45.186;5.720;2023-12-20T02:43:51;99811.03;;;4.07;100.00
52975;BME280;38839;45.186;5.720;2023-12-20T02:46:17;99805.28;;;4.16;100.00
52975;BME280;38839;45.186;5.720;2023-12-20T02:48:43;99797.00;;;4.26;100.00
52975;BME280;38839;45.186;5.720;2023-12-20T02:51:08;99792.69;;;4.25;100.00
52975;BME280;38839;45.186;5.720;2023-12-20T02:53:33;99797.91;;;4.27;100.00
52975;BME280;38839;45.186;5.720;2023-12-20T02:55:58;99802.47;;;4.35;100.00
52975;BME280;38839;45.186;5.720;2023-12-20T02:58:24;99795.75;;;4.40;100.00
52975;BME280;38839;45.186;5.720;2023-12-20T03:00:49;99795.94;;;4.47;100.00
52975;BME280;38839;45.186;5.720;2023-12-20T03:03:14;99785.31;;;4.37;100.00
52975;BME280;38839;45.186;5.720;2023-12-20T03:05:40;99784.22;;;4.29;100.00
52975;BME280;38839;45.186;5.720;2023-12-20T03:08:05;99784.72;;;4.19;100.00
52975;BME280;38839;45.186;5.720;2023-12-20T03:10:30;99784.34;;;4.07;100.00
52975;BME280;38839;45.186;5.720;2023-12-20T03:12:55;99781.22;;;4.17;100.00
52975;BME280;38839;45.186;5.720;2023-12-20T03:15:21;99786.28;;;4.14;100.00
52975;BME280;38839;45.186;5.720;2023-12-20T03:17:46;99774.22;;;4.13;100.00
52975;BME280;38839;45.186;5.720;2023-12-20T03:20:11;99781.50;;;4.26;100.00
52975;BME280;38839;45.186;5.720;2023-12-20T03:22:37;99773.94;;;4.31;100.00
52975;BME280;38839;45.186;5.720;2023-12-20T03:25:02;99775.97;;;4.41;100.00
52975;BME280;38839;45.186;5.720;2023-12-20T03:27:28;99759.56;;;4.40;100.00
52975;BME280;38839;45.186;5.720;2023-12-20T03:29:53;99755.19;;;4.38;100.00
52975;BME280;38839;45.186;5.720;2023-12-20T03:32:18;99754.94;;;4.30;100.00
52975;BME280;38839;45.186;5.720;2023-12-20T03:34:44;99754.13;;;4.31;100.00
52975;BME280;38839;45.186;5.720;2023-12-20T03:37:09;99756.84;;;4.36;100.00
52975;BME280;38839;45.186;5.720;2023-12-20T03:39:34;99744.97;;;4.41;100.00
52975;BME280;38839;45.186;5.720;2023-12-20T03:41:59;99752.13;;;4.50;100.00
52975;BME280;38839;45.186;5.720;2023-12-20T03:44:25;99755.78;;;4.56;100.00
52975;BME280;38839;45.186;5.720;2023-12-20T03:46:50;99747.16;;;4.56;100.00
52975;BME280;38839;45.186;5.720;2023-12-20T03:49:15;99752.38;;;4.57;100.00
52975;BME280;38839;45.186;5.720;2023-12-20T03:51:40;99753.25;;;4.58;100.00
52975;BME280;38839;45.186;5.720;2023-12-20T03:54:07;99752.50;;;4.62;100.00
52975;BME280;38839;45.186;5.720;2023-12-20T03:56:33;99753.25;;;4.58;100.00
52975;BME280;38839;45.186;5.720;2023-12-20T03:58:58;99749.91;;;4.62;100.00
52975;BME280;38839;45.186;5.720;2023-12-20T04:01:23;99753.31;;;4.61;100.00
52975;BME280;38839;45.186;5.720;2023-12-20T04:03:48;99745.66;;;4.64;100.00
52975;BME280;38839;45.186;5.720;2023-12-20T04:06:17;99743.13;;;4.66;100.00
52975;BME280;38839;45.186;5.720;2023-12-20T04:08:43;99746.66;;;4.69;100.00
52975;BME280;38839;45.186;5.720;2023-12-20T04:11:08;99745.13;;;4.74;100.00
52975;BME280;38839;45.186;5.720;2023-12-20T04:13:33;99744.38;;;4.78;100.00
52975;BME280;38839;45.186;5.720;2023-12-20T04:15:59;99736.81;;;4.84;100.00
52975;BME280;38839;45.186;5.720;2023-12-20T04:18:24;99734.25;;;4.86;100.00
52975;BME280;38839;45.186;5.720;2023-12-20T04:20:49;99734.47;;;4.94;100.00
52975;BME280;38839;45.186;5.720;2023-12-20T04:23:14;99726.53;;;4.88;100.00
52975;BME280;38839;45.186;5.720;2023-12-20T04:25:40;99720.50;;;4.87;100.00
52975;BME280;38839;45.186;5.720;2023-12-20T04:28:05;99708.59;;;4.92;100.00
52975;BME280;38839;45.186;5.720;2023-12-20T04:30:31;99710.44;;;4.98;100.00
52975;BME280;38839;45.186;5.720;2023-12-20T04:32:56;99714.94;;;5.03;100.00
52975;BME280;38839;45.186;5.720;2023-12-20T04:35:22;99722.38;;;4.93;100.00
52975;BME280;38839;45.186;5.720;2023-12-20T04:37:47;99719.44;;;4.80;100.00
52975;BME280;38839;45.186;5.720;2023-12-20T04:40:14;99723.59;;;4.75;100.00
52975;BME280;38839;45.186;5.720;2023-12-20T04:42:39;99710.72;;;4.77;100.00
52975;BME280;38839;45.186;5.720;2023-12-20T04:45:05;99722.22;;;4.58;100.00
52975;BME280;38839;45.186;5.720;2023-12-20T04:47:30;99726.25;;;4.21;100.00
52975;BME280;38839;45.186;5.720;2023-12-20T04:49:55;99735.88;;;3.99;100.00
52975;BME280;38839;45.186;5.720;2023-12-20T04:52:21;99735.69;;;3.93;100.00
52975;BME280;38839;45.186;5.720;2023-12-20T04:54:46;99735.75;;;3.95;100.00
52975;BME280;38839;45.186;5.720;2023-12-20T04:57:12;99733.69;;;3.85;100.00
52975;BME280;38839;45.186;5.720;2023-12-20T04:59:37;99736.13;;;3.80;100.00
52975;BME280;38839;45.186;5.720;2023-12-20T05:02:02;99734.41;;;3.80;100.00
52975;BME280;38839;45.186;5.720;2023-12-20T05:04:28;99723.63;;;3.67;100.00
52975;BME280;38839;45.186;5.720;2023-12-20T05:06:53;99714.56;;;3.78;100.00
52975;BME280;38839;45.186;5.720;2023-12-20T05:09:18;99710.19;;;3.75;100.00
52975;BME280;38839;45.186;5.720;2023-12-20T05:11:43;99714.56;;;3.78;100.00
52975;BME280;38839;45.186;5.720;2023-12-20T05:14:09;99718.84;;;3.77;100.00
52975;BME280;38839;45.186;5.720;2023-12-20T05:16:34;99728.19;;;3.74;100.00
52975;BME280;38839;45.186;5.720;2023-12-20T05:18:59;99719.06;;;3.85;100.00
52975;BME280;38839;45.186;5.720;2023-12-20T05:21:27;99712.44;;;3.92;100.00
52975;BME280;38839;45.186;5.720;2023-12-20T05:23:52;99720.13;;;3.90;100.00
52975;BME280;38839;45.186;5.720;2023-12-20T05:26:17;99723.78;;;3.97;100.00
52975;BME280;38839;45.186;5.720;2023-12-20T05:28:43;99726.53;;;4.03;100.00
52975;BME280;38839;45.186;5.720;2023-12-20T05:31:09;99724.34;;;4.15;100.00
52975;BME280;38839;45.186;5.720;2023-12-20T05:33:35;99728.88;;;3.95;100.00
52975;BME280;38839;45.186;5.720;2023-12-20T05:36:01;99726.06;;;3.88;100.00
52975;BME280;38839;45.186;5.720;2023-12-20T05:38:26;99722.44;;;3.82;100.00
52975;BME280;38839;45.186;5.720;2023-12-20T05:40:51;99725.06;;;3.84;100.00
52975;BME280;38839;45.186;5.720;2023-12-20T05:43:17;99722.38;;;3.81;100.00
52975;BME280;38839;45.186;5.720;2023-12-20T05:45:42;99719.28;;;3.91;100.00
52975;BME280;38839;45.186;5.720;2023-12-20T05:48:09;99718.53;;;3.95;100.00
52975;BME280;38839;45.186;5.720;2023-12-20T05:50:35;99723.78;;;3.97;100.00
52975;BME280;38839;45.186;5.720;2023-12-20T05:53:00;99724.88;;;4.05;100.00
52975;BME280;38839;45.186;5.720;2023-12-20T05:55:26;99720.84;;;4.13;100.00
52975;BME280;38839;45.186;5.720;2023-12-20T05:57:51;99720.41;;;3.99;100.00
52975;BME280;38839;45.186;5.720;2023-12-20T06:00:16;99730.66;;;3.96;100.00
52975;BME280;38839;45.186;5.720;2023-12-20T06:02:42;99727.91;;;3.92;100.00
52975;BME280;38839;45.186;5.720;2023-12-20T06:05:07;99736.72;;;3.98;100.00
52975;BME280;38839;45.186;5.720;2023-12-20T06:07:32;99740.66;;;3.87;100.00
52975;BME280;38839;45.186;5.720;2023-12-20T06:09:58;99739.13;;;3.92;100.00
52975;BME280;38839;45.186;5.720;2023-12-20T06:12:23;99732.91;;;3.87;100.00
52975;BME280;38839;45.186;5.720;2023-12-20T06:14:48;99742.50;;;3.91;100.00
52975;BME280;38839;45.186;5.720;2023-12-20T06:17:13;99734.75;;;3.91;100.00
52975;BME280;38839;45.186;5.720;2023-12-20T06:19:39;99729.66;;;3.93;100.00
52975;BME280;38839;45.186;5.720;2023-12-20T06:22:04;99732.38;;;3.97;100.00
52975;BME280;38839;45.186;5.720;2023-12-20T06:24:29;99729.00;;;3.98;100.00
52975;BME280;38839;45.186;5.720;2023-12-20T06:26:54;99729.97;;;4.02;100.00
52975;BME280;38839;45.186;5.720;2023-12-20T06:29:20;99729.81;;;3.97;100.00
52975;BME280;38839;45.186;5.720;2023-12-20T06:31:45;99722.38;;;4.07;100.00
52975;BME280;38839;45.186;5.720;2023-12-20T06:34:10;99715.34;;;4.30;100.00
52975;BME280;38839;45.186;5.720;2023-12-20T06:36:36;99718.22;;;4.39;100.00
52975;BME280;38839;45.186;5.720;2023-12-20T06:39:01;99719.13;;;4.14;100.00
52975;BME280;38839;45.186;5.720;2023-12-20T06:41:26;99712.44;;;4.19;100.00
52975;BME280;38839;45.186;5.720;2023-12-20T06:43:52;99720.41;;;3.99;100.00
52975;BME280;38839;45.186;5.720;2023-12-20T06:46:18;99716.72;;;4.18;100.00
52975;BME280;38839;45.186;5.720;2023-12-20T06:48:43;99715.88;;;4.19;100.00
52975;BME280;38839;45.186;5.720;2023-12-20T06:51:13;99717.03;;;4.29;100.00
52975;BME280;38839;45.186;5.720;2023-12-20T06:53:39;99727.34;;;4.00;100.00
52975;BME280;38839;45.186;5.720;2023-12-20T06:56:04;99717.78;;;3.98;100.00
52975;BME280;38839;45.186;5.720;2023-12-20T06:58:29;99723.72;;;3.95;100.00
52975;BME280;38839;45.186;5.720;2023-12-20T07:00:55;99718.47;;;3.92;100.00
52975;BME280;38839;45.186;5.720;2023-12-20T07:03:20;99723.50;;;3.89;100.00
52975;BME280;38839;45.186;5.720;2023-12-20T07:05:45;99734.28;;;3.76;100.00
52975;BME280;38839;45.186;5.720;2023-12-20T07:08:11;99732.69;;;3.79;100.00
52975;BME280;38839;45.186;5.720;2023-12-20T07:10:38;99742.31;;;3.85;100.00
52975;BME280;38839;45.186;5.720;2023-12-20T07:13:03;99736.84;;;3.76;100.00
52975;BME280;38839;45.186;5.720;2023-12-20T07:15:29;99759.03;;;3.71;100.00
52975;BME280;38839;45.186;5.720;2023-12-20T07:17:54;99757.56;;;3.77;100.00
52975;BME280;38839;45.186;5.720;2023-12-20T07:20:20;99749.97;;;3.82;100.00
52975;BME280;38839;45.186;5.720;2023-12-20T07:22:45;99747.66;;;3.91;100.00
52975;BME280;38839;45.186;5.720;2023-12-20T07:25:10;99750.44;;;3.96;100.00
52975;BME280;38839;45.186;5.720;2023-12-20T07:27:35;99756.75;;;4.06;100.00
52975;BME280;38839;45.186;5.720;2023-12-20T07:30:01;99754.34;;;4.12;100.00
52975;BME280;38839;45.186;5.720;2023-12-20T07:32:26;99744.97;;;4.14;100.00
52975;BME280;38839;45.186;5.720;2023-12-20T07:34:52;99749.94;;;4.08;100.00
52975;BME280;38839;45.186;5.720;2023-12-20T07:37:18;99753.63;;;4.16;100.00
52975;BME280;38839;45.186;5.720;2023-12-20T07:39:44;99748.66;;;4.22;100.00
52975;BME280;38839;45.186;5.720;2023-12-20T07:42:09;99748.97;;;4.31;100.00
52975;BME280;38839;45.186;5.720;2023-12-20T07:44:34;99745.28;;;4.23;100.00
52975;BME280;38839;45.186;5.720;2023-12-20T07:47:01;99743.63;;;4.25;100.00
52975;BME280;38839;45.186;5.720;2023-12-20T07:49:26;99739.22;;;4.22;100.00
52975;BME280;38839;45.186;5.720;2023-12-20T07:51:51;99748.66;;;4.22;100.00
52975;BME280;38839;45.186;5.720;2023-12-20T07:54:16;99757.44;;;4.27;100.00
52975;BME280;38839;45.186;5.720;2023-12-20T07:56:42;99757.78;;;4.38;100.00
52975;BME280;38839;45.186;5.720;2023-12-20T07:59:07;99755.19;;;4.38;100.00
52975;BME280;38839;45.186;5.720;2023-12-20T08:01:32;99753.69;;;4.44;100.00
52975;BME280;38839;45.186;5.720;2023-12-20T08:03:58;99757.16;;;4.45;100.00
52975;BME280;38839;45.186;5.720;2023-12-20T08:06:23;99758.09;;;4.47;100.00
52975;BME280;38839;45.186;5.720;2023-12-20T08:08:48;99755.88;;;4.59;100.00
52975;BME280;38839;45.186;5.720;2023-12-20T08:11:14;99759.50;;;4.66;100.00
52975;BME280;38839;45.186;5.720;2023-12-20T08:13:39;99768.69;;;4.56;100.00
52975;BME280;38839;45.186;5.720;2023-12-20T08:16:04;99760.94;;;4.56;100.00
52975;BME280;38839;45.186;5.720;2023-12-20T08:18:30;99771.47;;;4.62;100.00
52975;BME280;38839;45.186;5.720;2023-12-20T08:20:55;99783.41;;;4.59;100.00
52975;BME280;38839;45.186;5.720;2023-12-20T08:23:20;99775.28;;;4.47;100.00
52975;BME280;38839;45.186;5.720;2023-12-20T08:25:48;99762.47;;;4.50;100.00
52975;BME280;38839;45.186;5.720;2023-12-20T08:28:14;99779.50;;;4.44;100.00
52975;BME280;38839;45.186;5.720;2023-12-20T08:30:39;99779.47;;;4.43;100.00
52975;BME280;38839;45.186;5.720;2023-12-20T08:33:05;99785.88;;;4.27;100.00
52975;BME280;38839;45.186;5.720;2023-12-20T08:35:36;99792.22;;;4.38;100.00
52975;BME280;38839;45.186;5.720;2023-12-20T08:38:01;99798.97;;;4.33;100.00
52975;BME280;38839;45.186;5.720;2023-12-20T08:40:26;99799.59;;;4.26;100.00
52975;BME280;38839;45.186;5.720;2023-12-20T08:42:51;99800.50;;;4.28;100.00
52975;BME280;38839;45.186;5.720;2023-12-20T08:45:17;99805.47;;;4.22;100.00
52975;BME280;38839;45.186;5.720;2023-12-20T08:47:42;99800.22;;;4.19;100.00
52975;BME280;38839;45.186;5.720;2023-12-20T08:50:09;99817.91;;;4.07;100.00
52975;BME280;38839;45.186;5.720;2023-12-20T08:52:34;99819.84;;;4.14;100.00
52975;BME280;38839;45.186;5.720;2023-12-20T08:55:00;99816.44;;;4.15;100.00
52975;BME280;38839;45.186;5.720;2023-12-20T08:57:25;99823.47;;;4.19;100.00
52975;BME280;38839;45.186;5.720;2023-12-20T08:59:50;99821.91;;;4.24;100.00
52975;BME280;38839;45.186;5.720;2023-12-20T09:02:16;99814.56;;;4.36;100.00
52975;BME280;38839;45.186;5.720;2023-12-20T09:04:41;99805.22;;;4.40;100.00
52975;BME280;38839;45.186;5.720;2023-12-20T09:07:07;99799.63;;;4.55;100.00
52975;BME280;38839;45.186;5.720;2023-12-20T09:09:32;99799.03;;;4.62;100.00
52975;BME280;38839;45.186;5.720;2023-12-20T09:11:58;99805.19;;;4.67;100.00
52975;BME280;38839;45.186;5.720;2023-12-20T09:14:23;99800.13;;;4.70;100.00
52975;BME280;38839;45.186;5.720;2023-12-20T09:16:48;99809.59;;;4.70;100.00
52975;BME280;38839;45.186;5.720;2023-12-20T09:19:16;99805.31;;;4.70;100.00
52975;BME280;38839;45.186;5.720;2023-12-20T09:21:41;99812.13;;;4.68;100.00
52975;BME280;38839;45.186;5.720;2023-12-20T09:24:06;99811.28;;;4.69;100.00
52975;BME280;38839;45.186;5.720;2023-12-20T09:26:32;99822.53;;;4.71;100.00
52975;BME280;38839;45.186;5.720;2023-12-20T09:28:57;99815.63;;;4.70;100.00
52975;BME280;38839;45.186;5.720;2023-12-20T09:31:22;99817.44;;;4.73;100.00
52975;BME280;38839;45.186;5.720;2023-12-20T09:33:47;99818.47;;;4.78;100.00
52975;BME280;38839;45.186;5.720;2023-12-20T09:36:13;99821.38;;;4.89;100.00
52975;BME280;38839;45.186;5.720;2023-12-20T09:38:39;99821.56;;;4.95;100.00
52975;BME280;38839;45.186;5.720;2023-12-20T09:41:04;99821.75;;;5.01;100.00
52975;BME280;38839;45.186;5.720;2023-12-20T09:43:31;99827.09;;;5.07;100.00
52975;BME280;38839;45.186;5.720;2023-12-20T09:45:59;99827.00;;;5.04;100.00
52975;BME280;38839;45.186;5.720;2023-12-20T09:48:25;99832.28;;;5.07;100.00
52975;BME280;38839;45.186;5.720;2023-12-20T09:50:51;99832.28;;;5.07;100.00
52975;BME280;38839;45.186;5.720;2023-12-20T09:53:16;99833.09;;;5.06;100.00
52975;BME280;38839;45.186;5.720;2023-12-20T09:55:42;99808.31;;;5.14;100.00
52975;BME280;38839;45.186;5.720;2023-12-20T09:58:08;99826.59;;;5.20;100.00
52975;BME280;38839;45.186;5.720;2023-12-20T10:00:36;99826.91;;;5.30;100.00
52975;BME280;38839;45.186;5.720;2023-12-20T10:03:02;99822.88;;;5.39;100.00
52975;BME280;38839;45.186;5.720;2023-12-20T10:05:29;99812.19;;;5.29;100.00
52975;BME280;38839;45.186;5.720;2023-12-20T10:07:55;99812.81;;;5.50;100.00
52975;BME280;38839;45.186;5.720;2023-12-20T10:10:20;99808.44;;;5.49;100.00
52975;BME280;38839;45.186;5.720;2023-12-20T10:13:04;99813.63;;;5.81;100.00
52975;BME280;38839;45.186;5.720;2023-12-20T10:15:29;99810.53;;;5.94;100.00
52975;BME280;38839;45.186;5.720;2023-12-20T10:17:56;99802.25;;;5.74;100.00
52975;BME280;38839;45.186;5.720;2023-12-20T10:20:21;99817.84;;;5.77;100.00
52975;BME280;38839;45.186;5.720;2023-12-20T10:22:46;99799.19;;;5.57;100.00
52975;BME280;38839;45.186;5.720;2023-12-20T10:25:12;99812.47;;;5.70;100.00
52975;BME280;38839;45.186;5.720;2023-12-20T10:27:37;99794.66;;;5.82;100.00
52975;BME280;38839;45.186;5.720;2023-12-20T10:30:03;99797.00;;;6.04;100.00
52975;BME280;38839;45.186;5.720;2023-12-20T10:32:29;99778.81;;;6.01;100.00
52975;BME280;38839;45.186;5.720;2023-12-20T10:34:55;99776.06;;;6.30;100.00
52975;BME280;38839;45.186;5.720;2023-12-20T10:37:20;99793.72;;;6.47;100.00
52975;BME280;38839;45.186;5.720;2023-12-20T10:39:52;99771.00;;;6.00;100.00
52975;BME280;38839;45.186;5.720;2023-12-20T10:42:21;99777.28;;;6.10;100.00
52975;BME280;38839;45.186;5.720;2023-12-20T10:44:46;99768.19;;;6.27;100.00
52975;BME280;38839;45.186;5.720;2023-12-20T10:47:12;99768.91;;;6.58;100.00
52975;BME280;38839;45.186;5.720;2023-12-20T10:49:38;99762.59;;;6.84;100.00
52975;BME280;38839;45.186;5.720;2023-12-20T10:52:04;99761.25;;;7.02;100.00
52975;BME280;38839;45.186;5.720;2023-12-20T10:54:30;99763.16;;;7.11;100.00
52975;BME280;38839;45.186;5.720;2023-12-20T10:56:55;99746.06;;;7.20;100.00
52975;BME280;38839;45.186;5.720;2023-12-20T10:59:22;99739.34;;;7.32;100.00
52975;BME280;38839;45.186;5.720;2023-12-20T11:01:48;99748.09;;;7.37;100.00
52975;BME280;38839;45.186;5.720;2023-12-20T11:04:17;99734.38;;;7.44;100.00
52975;BME280;38839;45.186;5.720;2023-12-20T11:06:51;99723.13;;;7.43;100.00
52975;BME280;38839;45.186;5.720;2023-12-20T11:09:25;99735.13;;;7.37;100.00
52975;BME280;38839;45.186;5.720;2023-12-20T11:11:57;99737.59;;;7.31;100.00
52975;BME280;38839;45.186;5.720;2023-12-20T11:15:09;99740.75;;;7.14;100.00
52975;BME280;38839;45.186;5.720;2023-12-20T11:17:09;99738.06;;;7.10;100.00
52975;BME280;38839;45.186;5.720;2023-12-20T11:19:38;99726.25;;;7.24;100.00
52975;BME280;38839;45.186;5.720;2023-12-20T11:22:08;99724.59;;;7.29;100.00
52975;BME280;38839;45.186;5.720;2023-12-20T11:24:33;99722.97;;;7.34;100.00
52975;BME280;38839;45.186;5.720;2023-12-20T11:26:59;99720.34;;;7.33;100.00
52975;BME280;38839;45.186;5.720;2023-12-20T11:29:32;99726.47;;;7.36;100.00
52975;BME280;38839;45.186;5.720;2023-12-20T11:31:59;99723.88;;;7.38;100.00
52975;BME280;38839;45.186;5.720;2023-12-20T11:34:26;99734.19;;;7.33;100.00
52975;BME280;38839;45.186;5.720;2023-12-20T11:36:56;99722.06;;;7.34;100.00
52975;BME280;38839;45.186;5.720;2023-12-20T11:39:22;99724.66;;;7.34;100.00
52975;BME280;38839;45.186;5.720;2023-12-20T11:41:48;99725.44;;;7.30;100.00
52975;BME280;38839;45.186;5.720;2023-12-20T11:44:14;99718.56;;;7.32;100.00
52975;BME280;38839;45.186;5.720;2023-12-20T11:46:42;99708.16;;;7.29;100.00
52975;BME280;38839;45.186;5.720;2023-12-20T11:49:07;99709.88;;;7.30;100.00
52975;BME280;38839;45.186;5.720;2023-12-20T11:51:32;99704.69;;;7.30;100.00
52975;BME280;38839;45.186;5.720;2023-12-20T11:53:58;99716.00;;;7.33;100.00
52975;BME280;38839;45.186;5.720;2023-12-20T11:56:23;99705.66;;;7.35;100.00
52975;BME280;38839;45.186;5.720;2023-12-20T11:58:48;99702.13;;;7.31;100.00
52975;BME280;38839;45.186;5.720;2023-12-20T12:01:14;99725.53;;;7.33;100.00
52975;BME280;38839;45.186;5.720;2023-12-20T12:03:39;99712.47;;;7.30;100.00
52975;BME280;38839;45.186;5.720;2023-12-20T12:06:06;99719.41;;;7.29;100.00
52975;BME280;38839;45.186;5.720;2023-12-20T12:08:32;99718.56;;;7.32;100.00
52975;BME280;38839;45.186;5.720;2023-12-20T12:10:58;99715.94;;;7.29;100.00
52975;BME280;38839;45.186;5.720;2023-12-20T12:13:24;99715.06;;;7.30;100.00
52975;BME280;38839;45.186;5.720;2023-12-20T12:15:52;99709.06;;;7.31;100.00
52975;BME280;38839;45.186;5.720;2023-12-20T12:18:17;99714.34;;;7.37;100.00
52975;BME280;38839;45.186;5.720;2023-12-20T12:20:43;99713.56;;;7.41;100.00
52975;BME280;38839;45.186;5.720;2023-12-20T12:23:08;99711.06;;;7.45;100.00
52975;BME280;38839;45.186;5.720;2023-12-20T12:25:36;99706.78;;;7.49;100.00
52975;BME280;38839;45.186;5.720;2023-12-20T12:28:05;99703.41;;;7.53;100.00
52975;BME280;38839;45.186;5.720;2023-12-20T12:30:30;99706.84;;;7.51;100.00
52975;BME280;38839;45.186;5.720;2023-12-20T12:32:56;99703.34;;;7.50;100.00
52975;BME280;38839;45.186;5.720;2023-12-20T12:35:21;99713.78;;;7.53;100.00
52975;BME280;38839;45.186;5.720;2023-12-20T12:37:47;99698.25;;;7.56;100.00
52975;BME280;38839;45.186;5.720;2023-12-20T12:40:15;99702.63;;;7.57;100.00
52975;BME280;38839;45.186;5.720;2023-12-20T12:42:41;99698.47;;;7.69;100.00
52975;BME280;38839;45.186;5.720;2023-12-20T12:45:07;99704.66;;;7.75;100.00
52975;BME280;38839;45.186;5.720;2023-12-20T12:47:33;99690.72;;;7.70;100.00
52975;BME280;38839;45.186;5.720;2023-12-20T12:49:59;99695.94;;;7.72;100.00
52975;BME280;38839;45.186;5.720;2023-12-20T12:52:24;99697.66;;;7.73;100.00